Lampang Airport
VTCL : now visible

Airfield :











YOU CAN JOIN US ON...

 
LOGIN :

Register | Disclaimer

   EN    FR    IT 

 









Legend :    VFR   Marginal VFR   IFR   Intensive IFR   Very Intensive IFR
Visi :
Ceiling :
>= 8 km
>= 3000ft
5 to 8 km
1000 to 3000 ft
1500m to 5 km
500 to 1000 ft
800 to 1500m
200 to 500 ft
< 800m
< 200 ft
Symbols :   Thunderstorms  Fog  Heavy snow  Heavy precipitations  Wind > 20 kt






- Airport Elevation : 811 ft
- IATA code : LPT


VTCL - Lampang

CURRENT METAR :
  • 151300Z 18003KT 150V220 9999 BKN030 27/25 Q1005 NOSIG

EXPIRED METARs :
  • 151200Z 12006KT 090V160 9999 -RA BKN030 27/25 Q1004 NOSIG
  • 151100Z 05008KT 9999 -RA FEW020CB BKN030 30/25 Q1003 TEMPO TL1145 4000 TSRA
  • 151000Z 29006KT 9999 VCSH FEW020CB BKN030 33/25 Q1003 NOSIG

TAF TAF VTCL
Valid from the 15 at 12:00 until the 16 at 12:00 UTC


151100Z 1512/1612 17005KT 9999 SCT030
TEMPO 1512/1518 36010G20KT 4000 TSRA FEW020CB BKN025
TEMPO 1520/1602 -TSRA FEW020CB BKN025
TEMPO 1606/1612 30015G25KT 4000 TSRA FEW020CB BKN025
VTBB FIR / Asia



MET'MAP, your aeronautical weather chart ! - Copyright ORBIFLY December 2007 - Disclaimer

ORBIFLY MET'MAP TEAM :

Programming & Development : Alexandra Zaïnal
Original concept : Baudouin d'Aumeries
Technical & hardware support : Manuel Goepfert
Assistance : Marc-Olivier Méhu




SOURCES & CREDITS :

   NOAA       Earth
Advisory